sensor_id;sensor_type;location;lat;lon;timestamp;pressure;altitude;pressure_sealevel;temperature;humidity
25526;BME280;13424;48.424;11.258;2023-04-06T00:00:44;95801.69;;;3.97;57.60
25526;BME280;13424;48.424;11.258;2023-04-06T00:03:09;95801.31;;;3.79;57.01
25526;BME280;13424;48.424;11.258;2023-04-06T00:05:35;95794.13;;;3.94;57.09
25526;BME280;13424;48.424;11.258;2023-04-06T00:08:01;95806.84;;;3.84;57.29
25526;BME280;13424;48.424;11.258;2023-04-06T00:10:27;95803.16;;;3.78;57.84
25526;BME280;13424;48.424;11.258;2023-04-06T00:12:53;95790.06;;;3.63;58.46
25526;BME280;13424;48.424;11.258;2023-04-06T00:15:20;95788.06;;;3.66;58.57
25526;BME280;13424;48.424;11.258;2023-04-06T00:17:49;95784.13;;;3.83;58.01
25526;BME280;13424;48.424;11.258;2023-04-06T00:20:15;95792.44;;;3.80;58.15
25526;BME280;13424;48.424;11.258;2023-04-06T00:22:41;95789.25;;;3.63;57.04
25526;BME280;13424;48.424;11.258;2023-04-06T00:25:08;95791.56;;;3.73;56.59
25526;BME280;13424;48.424;11.258;2023-04-06T00:27:33;95792.31;;;3.67;57.13
25526;BME280;13424;48.424;11.258;2023-04-06T00:29:59;95790.81;;;3.85;57.13
25526;BME280;13424;48.424;11.258;2023-04-06T00:32:25;95795.19;;;4.00;56.10
25526;BME280;13424;48.424;11.258;2023-04-06T00:34:51;95794.63;;;4.04;56.81
25526;BME280;13424;48.424;11.258;2023-04-06T00:37:17;95789.78;;;3.80;56.65
25526;BME280;13424;48.424;11.258;2023-04-06T00:39:43;95790.69;;;3.66;56.62
25526;BME280;13424;48.424;11.258;2023-04-06T00:42:12;95788.22;;;3.36;57.55
25526;BME280;13424;48.424;11.258;2023-04-06T00:44:41;95789.63;;;3.32;57.76
25526;BME280;13424;48.424;11.258;2023-04-06T00:47:07;95795.44;;;3.27;57.25
25526;BME280;13424;48.424;11.258;2023-04-06T00:49:34;95787.59;;;3.34;57.96
25526;BME280;13424;48.424;11.258;2023-04-06T00:52:00;95776.97;;;3.49;57.81
25526;BME280;13424;48.424;11.258;2023-04-06T00:54:28;95792.47;;;3.58;58.25
25526;BME280;13424;48.424;11.258;2023-04-06T00:56:54;95786.72;;;3.48;57.90
25526;BME280;13424;48.424;11.258;2023-04-06T00:59:21;95788.06;;;3.66;57.90
25526;BME280;13424;48.424;11.258;2023-04-06T01:01:47;95786.94;;;3.53;58.19
25526;BME280;13424;48.424;11.258;2023-04-06T01:08:35;95788.63;;;3.40;57.69
25526;BME280;13424;48.424;11.258;2023-04-06T01:11:13;95791.13;;;3.41;57.57
25526;BME280;13424;48.424;11.258;2023-04-06T01:13:39;95785.31;;;3.31;57.83
25526;BME280;13424;48.424;11.258;2023-04-06T01:16:10;95781.66;;;3.53;57.22
25526;BME280;13424;48.424;11.258;2023-04-06T01:18:55;95778.97;;;3.47;56.97
25526;BME280;13424;48.424;11.258;2023-04-06T01:21:27;95781.03;;;3.51;57.25
25526;BME280;13424;48.424;11.258;2023-04-06T01:24:06;95779.13;;;3.67;57.42
25526;BME280;13424;48.424;11.258;2023-04-06T01:26:47;95771.88;;;3.47;56.90
25526;BME280;13424;48.424;11.258;2023-04-06T01:29:13;95768.00;;;3.43;57.40
25526;BME280;13424;48.424;11.258;2023-04-06T01:31:39;95770.09;;;3.54;57.19
25526;BME280;13424;48.424;11.258;2023-04-06T01:34:05;95768.38;;;3.40;57.03
25526;BME280;13424;48.424;11.258;2023-04-06T01:36:32;95771.31;;;3.52;57.82
25526;BME280;13424;48.424;11.258;2023-04-06T01:39:08;95769.81;;;3.71;57.05
25526;BME280;13424;48.424;11.258;2023-04-06T01:41:37;95767.84;;;3.51;57.89
25526;BME280;13424;48.424;11.258;2023-04-06T01:44:04;95777.13;;;3.47;58.07
25526;BME280;13424;48.424;11.258;2023-04-06T01:46:31;95767.56;;;3.68;57.64
25526;BME280;13424;48.424;11.258;2023-04-06T01:48:58;95765.78;;;3.75;57.95
25526;BME280;13424;48.424;11.258;2023-04-06T01:51:32;95769.59;;;3.66;57.79
25526;BME280;13424;48.424;11.258;2023-04-06T01:54:41;95764.50;;;3.15;58.46
25526;BME280;13424;48.424;11.258;2023-04-06T01:57:16;95760.84;;;3.37;58.93
25526;BME280;13424;48.424;11.258;2023-04-06T02:00:00;95759.53;;;3.48;58.36
25526;BME280;13424;48.424;11.258;2023-04-06T02:02:39;95759.59;;;3.33;58.48
25526;BME280;13424;48.424;11.258;2023-04-06T02:05:10;95758.22;;;3.37;58.43
25526;BME280;13424;48.424;11.258;2023-04-06T02:07:36;95755.63;;;3.44;58.72
25526;BME280;13424;48.424;11.258;2023-04-06T02:10:03;95756.69;;;3.49;58.83
25526;BME280;13424;48.424;11.258;2023-04-06T02:12:36;95754.06;;;3.28;58.60
25526;BME280;13424;48.424;11.258;2023-04-06T02:15:04;95744.69;;;3.19;58.57
25526;BME280;13424;48.424;11.258;2023-04-06T02:17:30;95747.66;;;3.37;57.65
25526;BME280;13424;48.424;11.258;2023-04-06T02:19:56;95754.94;;;3.35;57.58
25526;BME280;13424;48.424;11.258;2023-04-06T02:22:22;95756.09;;;3.54;58.31
25526;BME280;13424;48.424;11.258;2023-04-06T02:24:47;95750.56;;;3.42;58.00
25526;BME280;13424;48.424;11.258;2023-04-06T02:27:16;95751.53;;;3.69;58.23
25526;BME280;13424;48.424;11.258;2023-04-06T02:29:46;95751.50;;;3.62;58.45
25526;BME280;13424;48.424;11.258;2023-04-06T02:32:13;95742.16;;;3.32;58.76
25526;BME280;13424;48.424;11.258;2023-04-06T02:34:39;95752.03;;;3.51;58.09
25526;BME280;13424;48.424;11.258;2023-04-06T02:37:05;95742.91;;;3.26;58.30
25526;BME280;13424;48.424;11.258;2023-04-06T02:39:31;95743.53;;;3.28;59.09
25526;BME280;13424;48.424;11.258;2023-04-06T02:41:57;95743.13;;;3.31;58.77
25526;BME280;13424;48.424;11.258;2023-04-06T02:44:25;95750.00;;;3.53;58.94
25526;BME280;13424;48.424;11.258;2023-04-06T02:46:51;95748.34;;;3.46;58.14
25526;BME280;13424;48.424;11.258;2023-04-06T02:49:17;95746.75;;;3.02;59.35
25526;BME280;13424;48.424;11.258;2023-04-06T02:51:43;95741.69;;;2.79;59.78
25526;BME280;13424;48.424;11.258;2023-04-06T02:54:21;95737.53;;;2.91;59.55
25526;BME280;13424;48.424;11.258;2023-04-06T02:56:48;95739.28;;;3.05;59.48
25526;BME280;13424;48.424;11.258;2023-04-06T02:59:14;95738.47;;;3.05;59.54
25526;BME280;13424;48.424;11.258;2023-04-06T03:01:46;95741.41;;;2.74;60.10
25526;BME280;13424;48.424;11.258;2023-04-06T03:04:12;95740.09;;;2.63;59.46
25526;BME280;13424;48.424;11.258;2023-04-06T03:06:38;95733.69;;;2.72;60.02
25526;BME280;13424;48.424;11.258;2023-04-06T03:09:14;95746.19;;;3.06;59.17
25526;BME280;13424;48.424;11.258;2023-04-06T03:11:42;95741.91;;;3.05;59.70
25526;BME280;13424;48.424;11.258;2023-04-06T03:14:08;95743.59;;;2.92;59.50
25526;BME280;13424;48.424;11.258;2023-04-06T03:16:34;95744.31;;;2.79;59.98
25526;BME280;13424;48.424;11.258;2023-04-06T03:19:01;95740.84;;;3.00;59.93
25526;BME280;13424;48.424;11.258;2023-04-06T03:21:27;95744.75;;;2.83;59.84
25526;BME280;13424;48.424;11.258;2023-04-06T03:23:54;95737.41;;;2.99;60.30
25526;BME280;13424;48.424;11.258;2023-04-06T03:26:20;95740.81;;;2.93;60.22
25526;BME280;13424;48.424;11.258;2023-04-06T03:28:47;95738.41;;;2.77;60.52
25526;BME280;13424;48.424;11.258;2023-04-06T03:31:14;95739.34;;;2.69;60.26
25526;BME280;13424;48.424;11.258;2023-04-06T03:33:48;95732.38;;;2.62;60.23
25526;BME280;13424;48.424;11.258;2023-04-06T03:36:21;95745.88;;;2.73;60.06
25526;BME280;13424;48.424;11.258;2023-04-06T03:38:47;95741.16;;;2.90;59.75
25526;BME280;13424;48.424;11.258;2023-04-06T03:41:14;95745.94;;;2.80;60.15
25526;BME280;13424;48.424;11.258;2023-04-06T03:43:45;95740.63;;;2.59;60.44
25526;BME280;13424;48.424;11.258;2023-04-06T03:46:11;95740.72;;;2.65;60.50
25526;BME280;13424;48.424;11.258;2023-04-06T03:48:37;95752.19;;;2.58;60.39
25526;BME280;13424;48.424;11.258;2023-04-06T03:51:05;95747.97;;;2.27;61.53
25526;BME280;13424;48.424;11.258;2023-04-06T03:53:31;95748.94;;;2.56;61.26
25526;BME280;13424;48.424;11.258;2023-04-06T03:55:56;95752.47;;;2.48;60.51
25526;BME280;13424;48.424;11.258;2023-04-06T03:58:22;95757.38;;;2.51;60.75
25526;BME280;13424;48.424;11.258;2023-04-06T04:00:51;95761.16;;;2.63;60.78
25526;BME280;13424;48.424;11.258;2023-04-06T04:03:17;95751.47;;;2.49;61.03
25526;BME280;13424;48.424;11.258;2023-04-06T04:05:43;95753.81;;;2.22;61.49
25526;BME280;13424;48.424;11.258;2023-04-06T04:08:10;95756.78;;;2.34;61.61
25526;BME280;13424;48.424;11.258;2023-04-06T04:10:45;95757.41;;;2.36;61.08
25526;BME280;13424;48.424;11.258;2023-04-06T04:13:12;95755.22;;;2.40;61.50
25526;BME280;13424;48.424;11.258;2023-04-06T04:15:39;95748.63;;;2.29;61.64
25526;BME280;13424;48.424;11.258;2023-04-06T04:18:05;95762.72;;;2.58;61.27
25526;BME280;13424;48.424;11.258;2023-04-06T04:20:31;95765.47;;;2.49;61.62
25526;BME280;13424;48.424;11.258;2023-04-06T04:22:57;95754.63;;;2.23;61.91
25526;BME280;13424;48.424;11.258;2023-04-06T04:25:23;95765.03;;;2.31;62.25
25526;BME280;13424;48.424;11.258;2023-04-06T04:27:49;95763.88;;;1.89;63.22
25526;BME280;13424;48.424;11.258;2023-04-06T04:30:16;95769.97;;;1.75;63.73
25526;BME280;13424;48.424;11.258;2023-04-06T04:32:42;95769.28;;;1.44;63.89
25526;BME280;13424;48.424;11.258;2023-04-06T04:35:09;95763.50;;;1.63;64.17
25526;BME280;13424;48.424;11.258;2023-04-06T04:37:40;95771.84;;;1.52;64.60
25526;BME280;13424;48.424;11.258;2023-04-06T04:40:08;95765.25;;;1.71;64.47
25526;BME280;13424;48.424;11.258;2023-04-06T04:42:43;95766.13;;;1.48;65.29
25526;BME280;13424;48.424;11.258;2023-04-06T04:45:15;95768.66;;;1.56;64.97
25526;BME280;13424;48.424;11.258;2023-04-06T04:47:41;95772.84;;;1.51;65.15
25526;BME280;13424;48.424;11.258;2023-04-06T04:50:09;95764.78;;;1.67;65.47
25526;BME280;13424;48.424;11.258;2023-04-06T04:52:38;95769.84;;;1.54;65.29
25526;BME280;13424;48.424;11.258;2023-04-06T04:55:20;95765.72;;;1.74;64.87
25526;BME280;13424;48.424;11.258;2023-04-06T04:57:52;95762.81;;;1.99;65.35
25526;BME280;13424;48.424;11.258;2023-04-06T05:00:22;95765.59;;;1.97;64.51
25526;BME280;13424;48.424;11.258;2023-04-06T05:02:49;95766.34;;;2.06;64.26
25526;BME280;13424;48.424;11.258;2023-04-06T05:05:20;95763.75;;;2.42;64.07
25526;BME280;13424;48.424;11.258;2023-04-06T05:07:46;95766.25;;;2.14;64.55
25526;BME280;13424;48.424;11.258;2023-04-06T05:10:21;95777.22;;;2.03;64.69
25526;BME280;13424;48.424;11.258;2023-04-06T05:12:54;95773.03;;;1.64;64.64
25526;BME280;13424;48.424;11.258;2023-04-06T05:15:20;95772.84;;;1.51;65.43
25526;BME280;13424;48.424;11.258;2023-04-06T05:17:49;95780.38;;;1.68;64.96
25526;BME280;13424;48.424;11.258;2023-04-06T05:20:20;95787.47;;;1.68;64.86
25526;BME280;13424;48.424;11.258;2023-04-06T05:22:49;95784.19;;;1.51;65.18
25526;BME280;13424;48.424;11.258;2023-04-06T05:25:15;95786.53;;;1.61;65.66
25526;BME280;13424;48.424;11.258;2023-04-06T05:27:42;95791.03;;;1.37;65.72
25526;BME280;13424;48.424;11.258;2023-04-06T05:30:21;95790.19;;;1.89;65.62
25526;BME280;13424;48.424;11.258;2023-04-06T05:32:48;95794.56;;;1.82;65.92
25526;BME280;13424;48.424;11.258;2023-04-06T05:35:14;95788.94;;;1.85;64.66
25526;BME280;13424;48.424;11.258;2023-04-06T05:37:44;95791.72;;;1.69;65.69
25526;BME280;13424;48.424;11.258;2023-04-06T05:40:10;95789.63;;;1.64;65.83
25526;BME280;13424;48.424;11.258;2023-04-06T05:42:41;95787.56;;;1.89;65.12
25526;BME280;13424;48.424;11.258;2023-04-06T05:45:09;95792.09;;;1.81;65.10
25526;BME280;13424;48.424;11.258;2023-04-06T05:47:37;95799.00;;;1.82;65.85
25526;BME280;13424;48.424;11.258;2023-04-06T05:50:15;95794.50;;;1.53;65.96
25526;BME280;13424;48.424;11.258;2023-04-06T05:52:41;95791.59;;;1.48;66.32
25526;BME280;13424;48.424;11.258;2023-04-06T05:55:11;95797.97;;;1.68;65.60
25526;BME280;13424;48.424;11.258;2023-04-06T05:57:39;95798.19;;;2.11;65.53
25526;BME280;13424;48.424;11.258;2023-04-06T06:00:06;95791.66;;;2.07;64.82
25526;BME280;13424;48.424;11.258;2023-04-06T06:02:38;95800.16;;;2.38;64.75
25526;BME280;13424;48.424;11.258;2023-04-06T06:05:08;95792.16;;;2.83;63.11
25526;BME280;13424;48.424;11.258;2023-04-06T06:07:34;95795.59;;;2.62;64.09
25526;BME280;13424;48.424;11.258;2023-04-06T06:10:02;95792.84;;;2.70;64.03
25526;BME280;13424;48.424;11.258;2023-04-06T06:12:32;95804.41;;;2.90;63.33
25526;BME280;13424;48.424;11.258;2023-04-06T06:19:15;95801.66;;;3.41;62.64
25526;BME280;13424;48.424;11.258;2023-04-06T06:21:43;95803.50;;;3.47;63.23
25526;BME280;13424;48.424;11.258;2023-04-06T06:24:09;95798.59;;;3.66;62.47
25526;BME280;13424;48.424;11.258;2023-04-06T06:26:35;95802.53;;;3.48;63.54
25526;BME280;13424;48.424;11.258;2023-04-06T06:29:03;95799.84;;;3.70;63.10
25526;BME280;13424;48.424;11.258;2023-04-06T06:31:38;95803.78;;;3.52;63.73
25526;BME280;13424;48.424;11.258;2023-04-06T06:34:04;95795.78;;;3.18;64.96
25526;BME280;13424;48.424;11.258;2023-04-06T06:36:32;95796.94;;;3.58;64.78
25526;BME280;13424;48.424;11.258;2023-04-06T06:38:58;95789.53;;;3.75;64.06
25526;BME280;13424;48.424;11.258;2023-04-06T06:41:50;95799.69;;;3.78;64.23
25526;BME280;13424;48.424;11.258;2023-04-06T06:44:17;95812.47;;;4.37;63.31
25526;BME280;13424;48.424;11.258;2023-04-06T06:46:43;95813.69;;;4.41;63.60
25526;BME280;13424;48.424;11.258;2023-04-06T06:49:08;95812.25;;;4.86;61.67
25526;BME280;13424;48.424;11.258;2023-04-06T06:51:35;95807.34;;;4.76;61.38
25526;BME280;13424;48.424;11.258;2023-04-06T06:54:01;95811.72;;;4.56;61.89
25526;BME280;13424;48.424;11.258;2023-04-06T06:56:27;95807.75;;;4.80;61.06
25526;BME280;13424;48.424;11.258;2023-04-06T06:58:53;95810.50;;;5.13;61.80
25526;BME280;13424;48.424;11.258;2023-04-06T07:01:28;95814.00;;;5.40;60.25
25526;BME280;13424;48.424;11.258;2023-04-06T07:03:55;95815.44;;;5.29;61.14
25526;BME280;13424;48.424;11.258;2023-04-06T07:06:21;95823.81;;;5.79;59.74
25526;BME280;13424;48.424;11.258;2023-04-06T07:08:47;95820.97;;;6.01;59.67
25526;BME280;13424;48.424;11.258;2023-04-06T07:11:12;95823.00;;;5.99;59.25
25526;BME280;13424;48.424;11.258;2023-04-06T07:13:38;95828.88;;;6.34;59.01
25526;BME280;13424;48.424;11.258;2023-04-06T07:16:04;95830.84;;;6.52;58.91
25526;BME280;13424;48.424;11.258;2023-04-06T07:18:30;95829.72;;;6.86;58.46
25526;BME280;13424;48.424;11.258;2023-04-06T07:20:58;95831.75;;;6.90;59.09
25526;BME280;13424;48.424;11.258;2023-04-06T07:23:24;95835.72;;;7.13;58.51
25526;BME280;13424;48.424;11.258;2023-04-06T07:25:50;95835.34;;;7.41;57.79
25526;BME280;13424;48.424;11.258;2023-04-06T07:28:17;95835.50;;;7.14;59.41
25526;BME280;13424;48.424;11.258;2023-04-06T07:30:43;95832.84;;;7.52;58.82
25526;BME280;13424;48.424;11.258;2023-04-06T07:33:11;95831.19;;;7.83;57.21
25526;BME280;13424;48.424;11.258;2023-04-06T07:35:38;95836.28;;;8.09;57.42
25526;BME280;13424;48.424;11.258;2023-04-06T07:38:05;95839.91;;;8.40;57.07
25526;BME280;13424;48.424;11.258;2023-04-06T07:40:32;95832.09;;;7.95;56.92
25526;BME280;13424;48.424;11.258;2023-04-06T07:42:58;95838.75;;;8.54;56.80
25526;BME280;13424;48.424;11.258;2023-04-06T07:45:24;95840.66;;;8.65;56.20
25526;BME280;13424;48.424;11.258;2023-04-06T07:47:50;95836.91;;;7.80;53.80
25526;BME280;13424;48.424;11.258;2023-04-06T07:50:16;95834.38;;;8.78;53.41
25526;BME280;13424;48.424;11.258;2023-04-06T07:56:08;95826.47;;;8.90;51.56
25526;BME280;13424;48.424;11.258;2023-04-06T07:58:34;95837.53;;;9.05;52.90
25526;BME280;13424;48.424;11.258;2023-04-06T08:01:01;95834.41;;;9.68;51.22
25526;BME280;13424;48.424;11.258;2023-04-06T08:03:26;95827.44;;;8.95;51.98
25526;BME280;13424;48.424;11.258;2023-04-06T08:05:52;95833.16;;;9.11;51.98
25526;BME280;13424;48.424;11.258;2023-04-06T08:08:18;95839.19;;;9.78;51.43
25526;BME280;13424;48.424;11.258;2023-04-06T08:10:45;95841.28;;;9.76;50.06
25526;BME280;13424;48.424;11.258;2023-04-06T08:13:10;95827.06;;;9.94;49.76
25526;BME280;13424;48.424;11.258;2023-04-06T08:15:36;95835.38;;;9.86;51.86
25526;BME280;13424;48.424;11.258;2023-04-06T08:22:08;95830.97;;;9.38;51.04
25526;BME280;13424;48.424;11.258;2023-04-06T08:24:34;95827.88;;;10.06;50.16
25526;BME280;13424;48.424;11.258;2023-04-06T08:27:18;95836.13;;;9.63;51.81
25526;BME280;13424;48.424;11.258;2023-04-06T08:29:44;95831.00;;;10.03;48.13
25526;BME280;13424;48.424;11.258;2023-04-06T08:32:10;95840.00;;;9.78;47.53
25526;BME280;13424;48.424;11.258;2023-04-06T08:34:36;95833.50;;;10.28;48.02
25526;BME280;13424;48.424;11.258;2023-04-06T08:37:02;95838.88;;;9.98;47.61
25526;BME280;13424;48.424;11.258;2023-04-06T08:39:28;95831.53;;;11.10;47.03
25526;BME280;13424;48.424;11.258;2023-04-06T08:41:56;95839.25;;;10.83;47.44
25526;BME280;13424;48.424;11.258;2023-04-06T08:44:25;95832.09;;;10.25;48.00
25526;BME280;13424;48.424;11.258;2023-04-06T08:46:51;95838.41;;;10.95;46.28
25526;BME280;13424;48.424;11.258;2023-04-06T08:49:18;95835.41;;;10.09;46.06
25526;BME280;13424;48.424;11.258;2023-04-06T08:51:44;95840.94;;;9.72;45.40
25526;BME280;13424;48.424;11.258;2023-04-06T08:54:11;95845.31;;;10.67;45.50
25526;BME280;13424;48.424;11.258;2023-04-06T08:56:39;95850.38;;;10.92;46.99
25526;BME280;13424;48.424;11.258;2023-04-06T08:59:05;95841.00;;;11.18;46.64
25526;BME280;13424;48.424;11.258;2023-04-06T09:01:33;95847.88;;;11.14;44.32
25526;BME280;13424;48.424;11.258;2023-04-06T09:04:01;95839.28;;;11.97;44.59
25526;BME280;13424;48.424;11.258;2023-04-06T09:06:31;95839.13;;;11.87;45.28
25526;BME280;13424;48.424;11.258;2023-04-06T09:09:06;95841.69;;;11.54;43.66
25526;BME280;13424;48.424;11.258;2023-04-06T09:11:46;95833.63;;;11.65;42.48
25526;BME280;13424;48.424;11.258;2023-04-06T09:14:13;95838.69;;;11.50;44.33
25526;BME280;13424;48.424;11.258;2023-04-06T09:16:40;95839.38;;;11.86;43.62
25526;BME280;13424;48.424;11.258;2023-04-06T09:19:07;95833.06;;;12.25;43.51
25526;BME280;13424;48.424;11.258;2023-04-06T09:21:33;95838.72;;;12.12;43.11
25526;BME280;13424;48.424;11.258;2023-04-06T09:24:00;95824.38;;;11.56;44.11
25526;BME280;13424;48.424;11.258;2023-04-06T09:26:26;95830.91;;;12.44;44.55
25526;BME280;13424;48.424;11.258;2023-04-06T09:28:54;95830.94;;;11.94;41.82
25526;BME280;13424;48.424;11.258;2023-04-06T09:31:30;95835.19;;;13.23;41.15
25526;BME280;13424;48.424;11.258;2023-04-06T09:33:57;95825.88;;;12.86;41.50
25526;BME280;13424;48.424;11.258;2023-04-06T09:36:35;95829.28;;;13.21;41.96
25526;BME280;13424;48.424;11.258;2023-04-06T09:39:06;95832.34;;;13.56;42.35
25526;BME280;13424;48.424;11.258;2023-04-06T09:41:36;95819.91;;;12.41;44.50
25526;BME280;13424;48.424;11.258;2023-04-06T09:44:12;95820.13;;;12.78;41.04
25526;BME280;13424;48.424;11.258;2023-04-06T09:46:43;95824.63;;;12.94;42.26
25526;BME280;13424;48.424;11.258;2023-04-06T09:49:10;95805.97;;;13.43;41.68
25526;BME280;13424;48.424;11.258;2023-04-06T09:51:44;95813.38;;;12.92;41.50
25526;BME280;13424;48.424;11.258;2023-04-06T09:54:11;95808.97;;;13.25;41.13
25526;BME280;13424;48.424;11.258;2023-04-06T09:59:58;95802.09;;;11.51;41.40
25526;BME280;13424;48.424;11.258;2023-04-06T10:05:27;95811.56;;;12.76;41.50
25526;BME280;13424;48.424;11.258;2023-04-06T10:07:56;95807.63;;;12.62;40.24
25526;BME280;13424;48.424;11.258;2023-04-06T10:10:23;95797.72;;;12.07;42.88
25526;BME280;13424;48.424;11.258;2023-04-06T10:12:49;95801.75;;;13.03;40.05
25526;BME280;13424;48.424;11.258;2023-04-06T10:15:16;95791.38;;;12.29;40.13
25526;BME280;13424;48.424;11.258;2023-04-06T10:17:43;95805.25;;;12.87;41.71
25526;BME280;13424;48.424;11.258;2023-04-06T10:20:11;95793.16;;;13.23;42.03
25526;BME280;13424;48.424;11.258;2023-04-06T10:25:30;95797.19;;;13.04;42.04
25526;BME280;13424;48.424;11.258;2023-04-06T10:28:08;95790.38;;;13.40;38.20
25526;BME280;13424;48.424;11.258;2023-04-06T10:30:36;95787.91;;;13.11;39.01
25526;BME280;13424;48.424;11.258;2023-04-06T10:33:19;95784.84;;;11.87;41.29
25526;BME280;13424;48.424;11.258;2023-04-06T10:35:45;95787.72;;;12.36;41.29
25526;BME280;13424;48.424;11.258;2023-04-06T10:38:12;95779.63;;;12.91;39.74
25526;BME280;13424;48.424;11.258;2023-04-06T10:44:46;95777.78;;;13.19;42.05
25526;BME280;13424;48.424;11.258;2023-04-06T10:47:17;95780.03;;;13.81;39.32
25526;BME280;13424;48.424;11.258;2023-04-06T10:49:46;95782.78;;;13.32;41.00
25526;BME280;13424;48.424;11.258;2023-04-06T10:52:12;95771.47;;;12.81;40.97
25526;BME280;13424;48.424;11.258;2023-04-06T10:54:42;95767.09;;;11.97;39.98
25526;BME280;13424;48.424;11.258;2023-04-06T10:57:09;95779.44;;;12.76;40.67
25526;BME280;13424;48.424;11.258;2023-04-06T10:59:35;95772.09;;;12.27;40.96
25526;BME280;13424;48.424;11.258;2023-04-06T11:05:33;95769.22;;;12.51;40.11
25526;BME280;13424;48.424;11.258;2023-04-06T11:07:59;95760.28;;;12.07;40.58
25526;BME280;13424;48.424;11.258;2023-04-06T11:10:25;95759.56;;;13.37;39.63
25526;BME280;13424;48.424;11.258;2023-04-06T11:12:54;95762.00;;;12.95;40.73
25526;BME280;13424;48.424;11.258;2023-04-06T11:15:20;95761.16;;;13.17;40.68
25526;BME280;13424;48.424;11.258;2023-04-06T11:17:46;95755.91;;;13.49;40.15
25526;BME280;13424;48.424;11.258;2023-04-06T11:20:12;95760.84;;;13.62;39.24
25526;BME280;13424;48.424;11.258;2023-04-06T11:22:51;95751.94;;;13.88;38.72
25526;BME280;13424;48.424;11.258;2023-04-06T11:29:28;95752.63;;;13.74;39.69
25526;BME280;13424;48.424;11.258;2023-04-06T11:32:00;95741.19;;;14.63;37.73
25526;BME280;13424;48.424;11.258;2023-04-06T11:34:28;95735.44;;;15.06;39.42
25526;BME280;13424;48.424;11.258;2023-04-06T11:36:57;95728.41;;;14.90;37.90
25526;BME280;13424;48.424;11.258;2023-04-06T11:39:26;95736.28;;;14.07;37.81
25526;BME280;13424;48.424;11.258;2023-04-06T11:42:02;95734.28;;;14.82;37.45
25526;BME280;13424;48.424;11.258;2023-04-06T11:44:42;95729.72;;;14.30;37.39
25526;BME280;13424;48.424;11.258;2023-04-06T11:47:12;95735.09;;;14.30;38.54
25526;BME280;13424;48.424;11.258;2023-04-06T11:49:40;95724.06;;;14.27;40.02
25526;BME280;13424;48.424;11.258;2023-04-06T11:52:27;95733.97;;;13.84;37.77
25526;BME280;13424;48.424;11.258;2023-04-06T11:54:54;95723.47;;;14.14;35.41
25526;BME280;13424;48.424;11.258;2023-04-06T11:57:22;95723.84;;;13.96;36.82
25526;BME280;13424;48.424;11.258;2023-04-06T11:59:51;95731.13;;;13.63;38.85
25526;BME280;13424;48.424;11.258;2023-04-06T12:02:17;95721.16;;;14.86;37.02
25526;BME280;13424;48.424;11.258;2023-04-06T12:04:43;95720.22;;;15.32;37.74
25526;BME280;13424;48.424;11.258;2023-04-06T12:07:10;95717.47;;;14.02;37.31
25526;BME280;13424;48.424;11.258;2023-04-06T12:09:36;95718.25;;;13.33;36.11
25526;BME280;13424;48.424;11.258;2023-04-06T12:12:03;95708.59;;;13.32;38.38
25526;BME280;13424;48.424;11.258;2023-04-06T12:14:29;95710.38;;;14.75;37.11
25526;BME280;13424;48.424;11.258;2023-04-06T12:16:57;95705.59;;;14.93;33.96
25526;BME280;13424;48.424;11.258;2023-04-06T12:19:23;95702.41;;;14.38;38.20
25526;BME280;13424;48.424;11.258;2023-04-06T12:21:54;95704.91;;;15.43;36.65
25526;BME280;13424;48.424;11.258;2023-04-06T12:24:20;95710.53;;;15.36;37.67
25526;BME280;13424;48.424;11.258;2023-04-06T12:26:46;95701.44;;;15.63;36.61
25526;BME280;13424;48.424;11.258;2023-04-06T12:29:12;95702.50;;;16.13;35.71
25526;BME280;13424;48.424;11.258;2023-04-06T12:31:39;95705.75;;;16.05;35.19
25526;BME280;13424;48.424;11.258;2023-04-06T12:34:06;95704.63;;;16.11;36.53
25526;BME280;13424;48.424;11.258;2023-04-06T12:40:15;95703.72;;;13.02;37.46
25526;BME280;13424;48.424;11.258;2023-04-06T12:42:41;95693.69;;;12.05;39.21
25526;BME280;13424;48.424;11.258;2023-04-06T12:45:08;95703.63;;;13.78;40.09
25526;BME280;13424;48.424;11.258;2023-04-06T12:47:34;95692.53;;;13.32;38.23
25526;BME280;13424;48.424;11.258;2023-04-06T12:50:02;95695.53;;;13.36;37.25
25526;BME280;13424;48.424;11.258;2023-04-06T12:52:28;95688.53;;;15.60;36.80
25526;BME280;13424;48.424;11.258;2023-04-06T12:54:56;95688.00;;;15.68;35.72
25526;BME280;13424;48.424;11.258;2023-04-06T12:57:22;95687.94;;;13.28;36.42
25526;BME280;13424;48.424;11.258;2023-04-06T12:59:47;95688.44;;;14.99;37.31
25526;BME280;13424;48.424;11.258;2023-04-06T13:02:13;95690.31;;;13.56;35.75
25526;BME280;13424;48.424;11.258;2023-04-06T13:04:39;95694.38;;;14.38;36.13
25526;BME280;13424;48.424;11.258;2023-04-06T13:07:05;95693.81;;;15.04;36.13
25526;BME280;13424;48.424;11.258;2023-04-06T13:09:31;95680.66;;;15.07;35.46
25526;BME280;13424;48.424;11.258;2023-04-06T13:11:57;95687.94;;;15.12;35.70
25526;BME280;13424;48.424;11.258;2023-04-06T13:14:22;95687.34;;;14.95;36.51
25526;BME280;13424;48.424;11.258;2023-04-06T13:16:48;95680.19;;;16.02;35.07
25526;BME280;13424;48.424;11.258;2023-04-06T13:19:14;95678.22;;;14.86;35.67
25526;BME280;13424;48.424;11.258;2023-04-06T13:21:41;95677.25;;;13.65;36.38
25526;BME280;13424;48.424;11.258;2023-04-06T13:24:06;95670.75;;;12.97;38.15
25526;BME280;13424;48.424;11.258;2023-04-06T13:26:32;95673.19;;;12.76;36.82
25526;BME280;13424;48.424;11.258;2023-04-06T13:28:59;95664.06;;;12.50;37.22
25526;BME280;13424;48.424;11.258;2023-04-06T13:31:26;95675.84;;;13.52;36.18
25526;BME280;13424;48.424;11.258;2023-04-06T13:33:52;95673.34;;;14.77;35.80
25526;BME280;13424;48.424;11.258;2023-04-06T13:36:17;95663.31;;;14.05;36.31
25526;BME280;13424;48.424;11.258;2023-04-06T13:38:43;95671.13;;;14.12;36.63
25526;BME280;13424;48.424;11.258;2023-04-06T13:41:09;95665.88;;;14.95;37.58
25526;BME280;13424;48.424;11.258;2023-04-06T13:43:35;95668.50;;;14.79;38.20